sensor_id;sensor_type;location;lat;lon;timestamp;P1;durP1;ratioP1;P2;durP2;ratioP2
28960;SDS011;16068;42.896;20.868;2023-06-22T00:02:44;16.15;;;10.88;;
28960;SDS011;16068;42.896;20.868;2023-06-22T00:05:30;18.45;;;11.70;;
28960;SDS011;16068;42.896;20.868;2023-06-22T00:08:16;13.88;;;10.93;;
28960;SDS011;16068;42.896;20.868;2023-06-22T00:11:02;13.60;;;10.38;;
28960;SDS011;16068;42.896;20.868;2023-06-22T00:13:48;13.38;;;10.18;;
28960;SDS011;16068;42.896;20.868;2023-06-22T00:16:36;18.23;;;11.10;;
28960;SDS011;16068;42.896;20.868;2023-06-22T00:19:23;14.23;;;10.30;;
28960;SDS011;16068;42.896;20.868;2023-06-22T00:22:09;13.02;;;9.68;;
28960;SDS011;16068;42.896;20.868;2023-06-22T00:24:55;14.27;;;10.80;;
28960;SDS011;16068;42.896;20.868;2023-06-22T00:27:41;13.32;;;10.32;;
28960;SDS011;16068;42.896;20.868;2023-06-22T00:30:27;12.35;;;10.38;;
28960;SDS011;16068;42.896;20.868;2023-06-22T00:33:15;13.75;;;10.82;;
28960;SDS011;16068;42.896;20.868;2023-06-22T00:36:02;13.85;;;10.60;;
28960;SDS011;16068;42.896;20.868;2023-06-22T00:38:48;16.20;;;10.40;;
28960;SDS011;16068;42.896;20.868;2023-06-22T00:41:36;15.63;;;11.23;;
28960;SDS011;16068;42.896;20.868;2023-06-22T00:44:22;16.23;;;9.90;;
28960;SDS011;16068;42.896;20.868;2023-06-22T00:47:09;14.40;;;10.73;;
28960;SDS011;16068;42.896;20.868;2023-06-22T00:49:55;13.32;;;10.90;;
28960;SDS011;16068;42.896;20.868;2023-06-22T00:52:42;14.77;;;9.93;;
28960;SDS011;16068;42.896;20.868;2023-06-22T00:55:30;13.95;;;10.73;;
28960;SDS011;16068;42.896;20.868;2023-06-22T00:58:16;17.05;;;10.68;;
28960;SDS011;16068;42.896;20.868;2023-06-22T01:01:02;12.73;;;10.63;;
28960;SDS011;16068;42.896;20.868;2023-06-22T01:03:49;14.50;;;10.73;;
28960;SDS011;16068;42.896;20.868;2023-06-22T01:06:38;14.10;;;10.30;;
28960;SDS011;16068;42.896;20.868;2023-06-22T01:09:31;13.48;;;10.73;;
28960;SDS011;16068;42.896;20.868;2023-06-22T01:12:19;12.82;;;10.50;;
28960;SDS011;16068;42.896;20.868;2023-06-22T01:15:10;13.43;;;10.82;;
28960;SDS011;16068;42.896;20.868;2023-06-22T01:18:01;12.18;;;10.57;;
28960;SDS011;16068;42.896;20.868;2023-06-22T01:20:49;14.40;;;10.32;;
28960;SDS011;16068;42.896;20.868;2023-06-22T01:29:37;13.07;;;10.82;;
28960;SDS011;16068;42.896;20.868;2023-06-22T01:32:27;13.82;;;10.77;;
28960;SDS011;16068;42.896;20.868;2023-06-22T01:35:18;11.93;;;10.63;;
28960;SDS011;16068;42.896;20.868;2023-06-22T01:38:06;15.50;;;10.45;;
28960;SDS011;16068;42.896;20.868;2023-06-22T01:40:52;14.63;;;10.88;;
28960;SDS011;16068;42.896;20.868;2023-06-22T01:43:39;14.80;;;10.05;;
28960;SDS011;16068;42.896;20.868;2023-06-22T01:46:25;15.32;;;11.20;;
28960;SDS011;16068;42.896;20.868;2023-06-22T01:49:12;12.43;;;9.82;;
28960;SDS011;16068;42.896;20.868;2023-06-22T01:51:58;11.35;;;9.98;;
28960;SDS011;16068;42.896;20.868;2023-06-22T01:54:47;11.90;;;10.52;;
28960;SDS011;16068;42.896;20.868;2023-06-22T01:57:34;11.57;;;9.52;;
28960;SDS011;16068;42.896;20.868;2023-06-22T02:00:21;13.27;;;9.93;;
28960;SDS011;16068;42.896;20.868;2023-06-22T02:03:21;13.27;;;10.65;;
28960;SDS011;16068;42.896;20.868;2023-06-22T02:06:14;11.05;;;9.95;;
28960;SDS011;16068;42.896;20.868;2023-06-22T02:09:08;13.57;;;9.82;;
28960;SDS011;16068;42.896;20.868;2023-06-22T02:15:15;10.90;;;9.80;;
28960;SDS011;16068;42.896;20.868;2023-06-22T02:18:04;14.35;;;11.15;;
28960;SDS011;16068;42.896;20.868;2023-06-22T02:20:52;13.02;;;10.23;;
28960;SDS011;16068;42.896;20.868;2023-06-22T02:23:40;13.75;;;10.30;;
28960;SDS011;16068;42.896;20.868;2023-06-22T02:26:26;12.00;;;9.60;;
28960;SDS011;16068;42.896;20.868;2023-06-22T02:29:12;16.60;;;10.43;;
28960;SDS011;16068;42.896;20.868;2023-06-22T02:32:02;14.77;;;10.05;;
28960;SDS011;16068;42.896;20.868;2023-06-22T02:34:49;15.50;;;9.88;;
28960;SDS011;16068;42.896;20.868;2023-06-22T02:37:36;14.68;;;10.15;;
28960;SDS011;16068;42.896;20.868;2023-06-22T02:40:28;14.13;;;10.00;;
28960;SDS011;16068;42.896;20.868;2023-06-22T02:43:16;14.02;;;10.10;;
28960;SDS011;16068;42.896;20.868;2023-06-22T02:46:02;14.45;;;10.05;;
28960;SDS011;16068;42.896;20.868;2023-06-22T02:48:48;11.40;;;10.20;;
28960;SDS011;16068;42.896;20.868;2023-06-22T02:51:35;16.25;;;10.05;;
28960;SDS011;16068;42.896;20.868;2023-06-22T02:54:21;12.65;;;10.40;;
28960;SDS011;16068;42.896;20.868;2023-06-22T02:57:11;11.00;;;9.57;;
28960;SDS011;16068;42.896;20.868;2023-06-22T03:00:02;15.40;;;10.73;;
28960;SDS011;16068;42.896;20.868;2023-06-22T03:02:50;14.20;;;10.70;;
28960;SDS011;16068;42.896;20.868;2023-06-22T03:05:37;17.95;;;10.88;;
28960;SDS011;16068;42.896;20.868;2023-06-22T03:08:23;13.25;;;10.35;;
28960;SDS011;16068;42.896;20.868;2023-06-22T03:11:09;14.50;;;9.93;;
28960;SDS011;16068;42.896;20.868;2023-06-22T03:13:55;22.23;;;10.60;;
28960;SDS011;16068;42.896;20.868;2023-06-22T03:16:42;16.90;;;10.70;;
28960;SDS011;16068;42.896;20.868;2023-06-22T03:19:33;15.60;;;10.48;;
28960;SDS011;16068;42.896;20.868;2023-06-22T03:22:20;13.90;;;10.98;;
28960;SDS011;16068;42.896;20.868;2023-06-22T03:25:10;12.30;;;10.23;;
28960;SDS011;16068;42.896;20.868;2023-06-22T03:28:01;16.67;;;11.55;;
28960;SDS011;16068;42.896;20.868;2023-06-22T03:30:48;12.77;;;10.57;;
28960;SDS011;16068;42.896;20.868;2023-06-22T03:33:35;17.38;;;11.18;;
28960;SDS011;16068;42.896;20.868;2023-06-22T03:36:21;16.98;;;10.70;;
28960;SDS011;16068;42.896;20.868;2023-06-22T03:39:10;14.68;;;10.48;;
28960;SDS011;16068;42.896;20.868;2023-06-22T03:42:01;15.35;;;11.15;;
28960;SDS011;16068;42.896;20.868;2023-06-22T03:44:48;20.83;;;12.13;;
28960;SDS011;16068;42.896;20.868;2023-06-22T03:47:34;13.18;;;10.48;;
28960;SDS011;16068;42.896;20.868;2023-06-22T03:50:22;26.60;;;11.50;;
28960;SDS011;16068;42.896;20.868;2023-06-22T03:53:07;13.25;;;10.10;;
28960;SDS011;16068;42.896;20.868;2023-06-22T03:55:54;14.82;;;10.98;;
28960;SDS011;16068;42.896;20.868;2023-06-22T03:58:41;14.43;;;10.73;;
28960;SDS011;16068;42.896;20.868;2023-06-22T04:01:30;18.40;;;11.32;;
28960;SDS011;16068;42.896;20.868;2023-06-22T04:04:20;13.88;;;10.02;;
28960;SDS011;16068;42.896;20.868;2023-06-22T04:07:06;15.95;;;10.82;;
28960;SDS011;16068;42.896;20.868;2023-06-22T04:09:53;13.70;;;11.57;;
28960;SDS011;16068;42.896;20.868;2023-06-22T04:12:40;19.27;;;13.75;;
28960;SDS011;16068;42.896;20.868;2023-06-22T04:15:26;27.48;;;20.13;;
28960;SDS011;16068;42.896;20.868;2023-06-22T04:18:13;37.15;;;25.60;;
28960;SDS011;16068;42.896;20.868;2023-06-22T04:21:00;54.85;;;40.63;;
28960;SDS011;16068;42.896;20.868;2023-06-22T04:23:47;87.20;;;58.50;;
28960;SDS011;16068;42.896;20.868;2023-06-22T04:26:33;52.10;;;41.42;;
28960;SDS011;16068;42.896;20.868;2023-06-22T04:29:22;43.83;;;32.03;;
28960;SDS011;16068;42.896;20.868;2023-06-22T04:32:15;32.55;;;23.60;;
28960;SDS011;16068;42.896;20.868;2023-06-22T04:35:02;26.45;;;18.27;;
28960;SDS011;16068;42.896;20.868;2023-06-22T04:37:50;20.27;;;14.85;;
28960;SDS011;16068;42.896;20.868;2023-06-22T04:40:41;16.70;;;12.88;;
28960;SDS011;16068;42.896;20.868;2023-06-22T04:43:26;14.55;;;11.25;;
28960;SDS011;16068;42.896;20.868;2023-06-22T04:46:16;17.65;;;11.68;;
28960;SDS011;16068;42.896;20.868;2023-06-22T04:49:02;14.05;;;11.65;;
28960;SDS011;16068;42.896;20.868;2023-06-22T04:51:51;16.10;;;12.27;;
28960;SDS011;16068;42.896;20.868;2023-06-22T04:54:39;17.00;;;13.00;;
28960;SDS011;16068;42.896;20.868;2023-06-22T04:57:33;19.25;;;14.38;;
28960;SDS011;16068;42.896;20.868;2023-06-22T05:00:20;20.42;;;12.98;;
28960;SDS011;16068;42.896;20.868;2023-06-22T05:03:08;17.02;;;12.43;;
28960;SDS011;16068;42.896;20.868;2023-06-22T05:06:05;17.77;;;11.52;;
28960;SDS011;16068;42.896;20.868;2023-06-22T05:08:53;19.50;;;11.85;;
28960;SDS011;16068;42.896;20.868;2023-06-22T05:11:43;20.85;;;12.50;;
28960;SDS011;16068;42.896;20.868;2023-06-22T05:14:30;18.35;;;11.30;;
28960;SDS011;16068;42.896;20.868;2023-06-22T05:17:15;19.73;;;11.45;;
28960;SDS011;16068;42.896;20.868;2023-06-22T05:20:05;14.88;;;11.30;;
28960;SDS011;16068;42.896;20.868;2023-06-22T05:22:52;16.75;;;10.98;;
28960;SDS011;16068;42.896;20.868;2023-06-22T05:25:38;15.45;;;10.63;;
28960;SDS011;16068;42.896;20.868;2023-06-22T05:28:24;16.05;;;11.40;;
28960;SDS011;16068;42.896;20.868;2023-06-22T05:31:12;16.23;;;10.80;;
28960;SDS011;16068;42.896;20.868;2023-06-22T05:34:02;12.13;;;10.82;;
28960;SDS011;16068;42.896;20.868;2023-06-22T05:36:48;13.95;;;11.20;;
28960;SDS011;16068;42.896;20.868;2023-06-22T05:39:34;18.38;;;11.13;;
28960;SDS011;16068;42.896;20.868;2023-06-22T05:42:23;20.77;;;11.02;;
28960;SDS011;16068;42.896;20.868;2023-06-22T05:45:10;19.00;;;11.63;;
28960;SDS011;16068;42.896;20.868;2023-06-22T05:47:57;18.17;;;11.30;;
28960;SDS011;16068;42.896;20.868;2023-06-22T05:50:43;15.38;;;10.93;;
28960;SDS011;16068;42.896;20.868;2023-06-22T05:53:29;15.15;;;11.98;;
28960;SDS011;16068;42.896;20.868;2023-06-22T05:56:16;15.07;;;11.70;;
28960;SDS011;16068;42.896;20.868;2023-06-22T05:59:03;12.45;;;11.13;;
28960;SDS011;16068;42.896;20.868;2023-06-22T06:01:50;15.98;;;11.30;;
28960;SDS011;16068;42.896;20.868;2023-06-22T06:04:35;28.33;;;12.68;;
28960;SDS011;16068;42.896;20.868;2023-06-22T06:07:23;16.17;;;11.60;;
28960;SDS011;16068;42.896;20.868;2023-06-22T06:10:09;19.08;;;11.68;;
28960;SDS011;16068;42.896;20.868;2023-06-22T06:12:56;17.90;;;10.73;;
28960;SDS011;16068;42.896;20.868;2023-06-22T06:15:43;16.67;;;11.55;;
28960;SDS011;16068;42.896;20.868;2023-06-22T06:18:29;13.45;;;10.35;;
28960;SDS011;16068;42.896;20.868;2023-06-22T06:21:15;18.83;;;11.55;;
28960;SDS011;16068;42.896;20.868;2023-06-22T06:24:02;16.65;;;11.30;;
28960;SDS011;16068;42.896;20.868;2023-06-22T06:26:48;22.52;;;11.82;;
28960;SDS011;16068;42.896;20.868;2023-06-22T06:29:34;17.42;;;11.38;;
28960;SDS011;16068;42.896;20.868;2023-06-22T06:32:20;19.70;;;10.82;;
28960;SDS011;16068;42.896;20.868;2023-06-22T06:35:07;15.32;;;11.40;;
28960;SDS011;16068;42.896;20.868;2023-06-22T06:37:55;20.02;;;11.80;;
28960;SDS011;16068;42.896;20.868;2023-06-22T06:40:42;15.48;;;10.52;;
28960;SDS011;16068;42.896;20.868;2023-06-22T06:43:30;17.83;;;11.20;;
28960;SDS011;16068;42.896;20.868;2023-06-22T06:46:15;28.50;;;13.05;;
28960;SDS011;16068;42.896;20.868;2023-06-22T06:49:02;17.65;;;11.50;;
28960;SDS011;16068;42.896;20.868;2023-06-22T06:51:48;17.30;;;11.20;;
28960;SDS011;16068;42.896;20.868;2023-06-22T06:54:34;13.85;;;10.98;;
28960;SDS011;16068;42.896;20.868;2023-06-22T06:57:19;14.50;;;10.65;;
28960;SDS011;16068;42.896;20.868;2023-06-22T07:00:06;18.80;;;11.10;;
28960;SDS011;16068;42.896;20.868;2023-06-22T07:02:57;17.55;;;10.60;;
28960;SDS011;16068;42.896;20.868;2023-06-22T07:05:43;13.32;;;10.43;;
28960;SDS011;16068;42.896;20.868;2023-06-22T07:08:29;20.95;;;11.63;;
28960;SDS011;16068;42.896;20.868;2023-06-22T07:11:15;15.93;;;11.10;;
28960;SDS011;16068;42.896;20.868;2023-06-22T07:14:01;24.77;;;11.18;;
28960;SDS011;16068;42.896;20.868;2023-06-22T07:16:47;17.00;;;10.48;;
28960;SDS011;16068;42.896;20.868;2023-06-22T07:19:33;16.20;;;10.73;;
28960;SDS011;16068;42.896;20.868;2023-06-22T07:22:19;23.02;;;11.23;;
28960;SDS011;16068;42.896;20.868;2023-06-22T07:25:06;18.50;;;11.25;;
28960;SDS011;16068;42.896;20.868;2023-06-22T07:28:00;19.05;;;11.45;;
28960;SDS011;16068;42.896;20.868;2023-06-22T07:30:50;17.90;;;11.27;;
28960;SDS011;16068;42.896;20.868;2023-06-22T07:33:38;14.98;;;11.80;;
28960;SDS011;16068;42.896;20.868;2023-06-22T07:36:24;15.25;;;11.13;;
28960;SDS011;16068;42.896;20.868;2023-06-22T07:39:10;15.52;;;11.20;;
28960;SDS011;16068;42.896;20.868;2023-06-22T07:41:57;20.30;;;11.52;;
28960;SDS011;16068;42.896;20.868;2023-06-22T07:44:43;13.90;;;11.50;;
28960;SDS011;16068;42.896;20.868;2023-06-22T07:47:29;12.90;;;10.57;;
28960;SDS011;16068;42.896;20.868;2023-06-22T07:50:15;16.13;;;11.18;;
28960;SDS011;16068;42.896;20.868;2023-06-22T07:53:01;20.85;;;11.13;;
28960;SDS011;16068;42.896;20.868;2023-06-22T07:55:47;18.38;;;11.75;;
28960;SDS011;16068;42.896;20.868;2023-06-22T07:58:35;21.30;;;12.23;;
28960;SDS011;16068;42.896;20.868;2023-06-22T08:01:21;22.58;;;12.30;;
28960;SDS011;16068;42.896;20.868;2023-06-22T08:04:07;28.92;;;12.82;;
28960;SDS011;16068;42.896;20.868;2023-06-22T08:06:54;23.05;;;11.40;;
28960;SDS011;16068;42.896;20.868;2023-06-22T08:09:45;19.98;;;11.77;;
28960;SDS011;16068;42.896;20.868;2023-06-22T08:12:32;18.48;;;11.57;;
28960;SDS011;16068;42.896;20.868;2023-06-22T08:15:18;18.00;;;12.25;;
28960;SDS011;16068;42.896;20.868;2023-06-22T08:18:05;18.55;;;11.35;;
28960;SDS011;16068;42.896;20.868;2023-06-22T08:20:51;13.10;;;10.48;;
28960;SDS011;16068;42.896;20.868;2023-06-22T08:23:37;14.90;;;10.70;;
28960;SDS011;16068;42.896;20.868;2023-06-22T08:26:24;20.63;;;11.02;;
28960;SDS011;16068;42.896;20.868;2023-06-22T08:29:10;12.80;;;11.00;;
28960;SDS011;16068;42.896;20.868;2023-06-22T08:31:56;11.88;;;10.18;;
28960;SDS011;16068;42.896;20.868;2023-06-22T08:34:42;18.63;;;9.93;;
28960;SDS011;16068;42.896;20.868;2023-06-22T08:37:28;13.77;;;10.05;;
28960;SDS011;16068;42.896;20.868;2023-06-22T08:40:18;16.35;;;9.85;;
28960;SDS011;16068;42.896;20.868;2023-06-22T08:43:05;16.80;;;9.63;;
28960;SDS011;16068;42.896;20.868;2023-06-22T08:45:51;12.00;;;8.55;;
28960;SDS011;16068;42.896;20.868;2023-06-22T08:48:37;11.05;;;8.63;;
28960;SDS011;16068;42.896;20.868;2023-06-22T08:51:24;12.85;;;9.00;;
28960;SDS011;16068;42.896;20.868;2023-06-22T08:54:10;24.05;;;9.80;;
28960;SDS011;16068;42.896;20.868;2023-06-22T08:56:56;22.30;;;9.98;;
28960;SDS011;16068;42.896;20.868;2023-06-22T08:59:43;15.25;;;7.93;;
28960;SDS011;16068;42.896;20.868;2023-06-22T09:02:29;14.80;;;8.43;;
28960;SDS011;16068;42.896;20.868;2023-06-22T09:05:17;9.02;;;8.02;;
28960;SDS011;16068;42.896;20.868;2023-06-22T09:08:03;9.35;;;7.68;;
28960;SDS011;16068;42.896;20.868;2023-06-22T09:10:50;13.48;;;7.75;;
28960;SDS011;16068;42.896;20.868;2023-06-22T09:13:36;11.10;;;6.22;;
28960;SDS011;16068;42.896;20.868;2023-06-22T09:16:22;11.65;;;5.70;;
28960;SDS011;16068;42.896;20.868;2023-06-22T09:19:08;8.63;;;5.45;;
28960;SDS011;16068;42.896;20.868;2023-06-22T09:21:54;4.78;;;4.28;;
28960;SDS011;16068;42.896;20.868;2023-06-22T09:24:40;7.85;;;4.85;;
28960;SDS011;16068;42.896;20.868;2023-06-22T09:27:26;6.78;;;4.40;;
28960;SDS011;16068;42.896;20.868;2023-06-22T09:30:12;8.18;;;3.97;;
28960;SDS011;16068;42.896;20.868;2023-06-22T09:32:58;5.32;;;4.53;;
28960;SDS011;16068;42.896;20.868;2023-06-22T09:35:45;5.75;;;4.13;;
28960;SDS011;16068;42.896;20.868;2023-06-22T09:38:31;5.43;;;4.22;;
28960;SDS011;16068;42.896;20.868;2023-06-22T09:41:18;7.40;;;4.45;;
28960;SDS011;16068;42.896;20.868;2023-06-22T09:44:04;7.90;;;4.60;;
28960;SDS011;16068;42.896;20.868;2023-06-22T09:46:50;8.10;;;4.57;;
28960;SDS011;16068;42.896;20.868;2023-06-22T09:49:37;13.32;;;4.97;;
28960;SDS011;16068;42.896;20.868;2023-06-22T09:52:34;7.10;;;4.72;;
28960;SDS011;16068;42.896;20.868;2023-06-22T09:55:33;14.27;;;5.00;;
28960;SDS011;16068;42.896;20.868;2023-06-22T09:58:20;7.63;;;4.55;;
28960;SDS011;16068;42.896;20.868;2023-06-22T10:01:06;11.68;;;5.10;;
28960;SDS011;16068;42.896;20.868;2023-06-22T10:03:53;5.55;;;4.32;;
28960;SDS011;16068;42.896;20.868;2023-06-22T10:06:42;7.53;;;4.93;;
28960;SDS011;16068;42.896;20.868;2023-06-22T10:09:27;6.75;;;4.07;;
28960;SDS011;16068;42.896;20.868;2023-06-22T10:12:14;8.70;;;4.50;;
28960;SDS011;16068;42.896;20.868;2023-06-22T10:15:00;6.15;;;4.00;;
28960;SDS011;16068;42.896;20.868;2023-06-22T10:17:46;5.75;;;4.10;;
28960;SDS011;16068;42.896;20.868;2023-06-22T10:20:33;7.47;;;4.10;;
28960;SDS011;16068;42.896;20.868;2023-06-22T10:23:20;6.60;;;4.93;;
28960;SDS011;16068;42.896;20.868;2023-06-22T10:26:06;6.43;;;4.78;;
28960;SDS011;16068;42.896;20.868;2023-06-22T10:28:52;8.10;;;4.80;;
28960;SDS011;16068;42.896;20.868;2023-06-22T10:32:03;8.90;;;5.65;;
28960;SDS011;16068;42.896;20.868;2023-06-22T10:34:49;5.70;;;4.45;;
28960;SDS011;16068;42.896;20.868;2023-06-22T10:37:35;8.00;;;4.38;;
28960;SDS011;16068;42.896;20.868;2023-06-22T10:40:21;7.15;;;3.65;;
28960;SDS011;16068;42.896;20.868;2023-06-22T10:43:07;4.47;;;3.60;;
28960;SDS011;16068;42.896;20.868;2023-06-22T10:45:53;4.97;;;3.88;;
28960;SDS011;16068;42.896;20.868;2023-06-22T10:48:39;5.43;;;3.42;;
28960;SDS011;16068;42.896;20.868;2023-06-22T10:51:27;8.63;;;4.30;;
28960;SDS011;16068;42.896;20.868;2023-06-22T10:54:14;10.38;;;4.18;;
28960;SDS011;16068;42.896;20.868;2023-06-22T10:57:05;5.10;;;3.45;;
28960;SDS011;16068;42.896;20.868;2023-06-22T10:59:52;4.68;;;3.78;;
28960;SDS011;16068;42.896;20.868;2023-06-22T11:02:38;6.72;;;3.83;;
28960;SDS011;16068;42.896;20.868;2023-06-22T11:05:24;8.13;;;4.03;;
28960;SDS011;16068;42.896;20.868;2023-06-22T11:08:11;7.50;;;4.00;;
28960;SDS011;16068;42.896;20.868;2023-06-22T11:10:57;10.05;;;4.13;;
28960;SDS011;16068;42.896;20.868;2023-06-22T11:13:43;11.05;;;6.20;;
28960;SDS011;16068;42.896;20.868;2023-06-22T11:16:31;8.00;;;5.00;;
28960;SDS011;16068;42.896;20.868;2023-06-22T11:19:17;9.10;;;4.50;;
28960;SDS011;16068;42.896;20.868;2023-06-22T11:22:03;7.28;;;5.75;;
28960;SDS011;16068;42.896;20.868;2023-06-22T11:24:49;5.60;;;4.25;;
28960;SDS011;16068;42.896;20.868;2023-06-22T11:27:35;10.82;;;4.22;;
28960;SDS011;16068;42.896;20.868;2023-06-22T11:30:21;5.50;;;3.88;;
28960;SDS011;16068;42.896;20.868;2023-06-22T11:33:09;6.97;;;4.47;;
28960;SDS011;16068;42.896;20.868;2023-06-22T11:35:55;7.72;;;4.57;;
28960;SDS011;16068;42.896;20.868;2023-06-22T11:38:42;8.63;;;4.40;;
28960;SDS011;16068;42.896;20.868;2023-06-22T11:41:28;10.20;;;4.07;;
28960;SDS011;16068;42.896;20.868;2023-06-22T11:44:14;5.43;;;3.78;;
28960;SDS011;16068;42.896;20.868;2023-06-22T11:47:00;7.20;;;3.80;;
28960;SDS011;16068;42.896;20.868;2023-06-22T11:49:49;10.98;;;6.53;;
28960;SDS011;16068;42.896;20.868;2023-06-22T11:52:34;9.00;;;4.88;;
28960;SDS011;16068;42.896;20.868;2023-06-22T11:55:24;6.47;;;4.80;;
28960;SDS011;16068;42.896;20.868;2023-06-22T11:58:10;8.40;;;4.80;;
28960;SDS011;16068;42.896;20.868;2023-06-22T12:00:57;6.25;;;4.18;;
28960;SDS011;16068;42.896;20.868;2023-06-22T12:03:42;9.13;;;4.10;;
28960;SDS011;16068;42.896;20.868;2023-06-22T12:06:29;6.63;;;3.90;;
28960;SDS011;16068;42.896;20.868;2023-06-22T12:09:15;8.30;;;4.05;;
28960;SDS011;16068;42.896;20.868;2023-06-22T12:12:02;8.93;;;4.38;;
28960;SDS011;16068;42.896;20.868;2023-06-22T12:14:48;9.50;;;4.65;;
28960;SDS011;16068;42.896;20.868;2023-06-22T12:58:58;8.10;;;5.53;;
28960;SDS011;16068;42.896;20.868;2023-06-22T13:01:47;9.57;;;6.32;;
28960;SDS011;16068;42.896;20.868;2023-06-22T13:04:33;15.20;;;6.30;;
28960;SDS011;16068;42.896;20.868;2023-06-22T13:07:19;15.35;;;7.45;;
28960;SDS011;16068;42.896;20.868;2023-06-22T13:10:08;9.27;;;5.63;;
28960;SDS011;16068;42.896;20.868;2023-06-22T13:12:54;8.73;;;5.45;;
28960;SDS011;16068;42.896;20.868;2023-06-22T13:15:47;12.60;;;6.45;;
28960;SDS011;16068;42.896;20.868;2023-06-22T13:18:33;7.03;;;5.15;;
28960;SDS011;16068;42.896;20.868;2023-06-22T13:21:22;6.75;;;5.20;;
28960;SDS011;16068;42.896;20.868;2023-06-22T13:24:08;12.85;;;5.53;;
28960;SDS011;16068;42.896;20.868;2023-06-22T13:26:57;8.20;;;5.93;;
28960;SDS011;16068;42.896;20.868;2023-06-22T13:29:43;10.10;;;6.03;;
28960;SDS011;16068;42.896;20.868;2023-06-22T13:32:29;9.98;;;5.80;;
28960;SDS011;16068;42.896;20.868;2023-06-22T13:35:15;9.05;;;5.65;;
28960;SDS011;16068;42.896;20.868;2023-06-22T13:38:02;8.30;;;5.05;;
28960;SDS011;16068;42.896;20.868;2023-06-22T13:40:48;12.05;;;5.90;;
28960;SDS011;16068;42.896;20.868;2023-06-22T13:43:35;11.38;;;5.85;;
28960;SDS011;16068;42.896;20.868;2023-06-22T13:46:21;11.50;;;5.93;;
28960;SDS011;16068;42.896;20.868;2023-06-22T13:49:08;15.80;;;6.43;;
28960;SDS011;16068;42.896;20.868;2023-06-22T13:51:54;14.52;;;6.80;;
28960;SDS011;16068;42.896;20.868;2023-06-22T13:54:41;10.68;;;7.22;;
28960;SDS011;16068;42.896;20.868;2023-06-22T13:57:27;31.95;;;18.45;;
28960;SDS011;16068;42.896;20.868;2023-06-22T14:00:13;10.80;;;7.07;;
28960;SDS011;16068;42.896;20.868;2023-06-22T14:03:02;8.00;;;6.45;;
28960;SDS011;16068;42.896;20.868;2023-06-22T14:05:48;9.75;;;6.07;;
28960;SDS011;16068;42.896;20.868;2023-06-22T14:08:36;11.20;;;6.30;;
28960;SDS011;16068;42.896;20.868;2023-06-22T14:11:25;11.60;;;5.57;;
28960;SDS011;16068;42.896;20.868;2023-06-22T14:14:13;10.00;;;5.60;;
28960;SDS011;16068;42.896;20.868;2023-06-22T14:16:59;9.02;;;5.80;;
28960;SDS011;16068;42.896;20.868;2023-06-22T14:19:45;9.70;;;5.68;;
28960;SDS011;16068;42.896;20.868;2023-06-22T14:22:31;10.15;;;5.88;;
28960;SDS011;16068;42.896;20.868;2023-06-22T14:25:19;15.80;;;9.57;;
28960;SDS011;16068;42.896;20.868;2023-06-22T14:28:04;19.92;;;10.63;;
28960;SDS011;16068;42.896;20.868;2023-06-22T14:30:51;12.88;;;8.80;;
28960;SDS011;16068;42.896;20.868;2023-06-22T14:33:37;11.93;;;6.63;;
28960;SDS011;16068;42.896;20.868;2023-06-22T14:36:24;20.73;;;13.20;;
28960;SDS011;16068;42.896;20.868;2023-06-22T14:39:10;19.63;;;12.77;;
28960;SDS011;16068;42.896;20.868;2023-06-22T14:41:57;16.52;;;10.32;;
28960;SDS011;16068;42.896;20.868;2023-06-22T14:44:43;12.77;;;8.43;;
28960;SDS011;16068;42.896;20.868;2023-06-22T14:47:31;12.40;;;6.35;;
28960;SDS011;16068;42.896;20.868;2023-06-22T14:50:18;11.48;;;6.43;;
28960;SDS011;16068;42.896;20.868;2023-06-22T14:53:08;12.77;;;5.97;;
28960;SDS011;16068;42.896;20.868;2023-06-22T14:55:54;18.90;;;6.32;;
28960;SDS011;16068;42.896;20.868;2023-06-22T14:58:41;7.57;;;5.10;;
28960;SDS011;16068;42.896;20.868;2023-06-22T15:01:32;11.18;;;5.88;;
28960;SDS011;16068;42.896;20.868;2023-06-22T15:04:18;7.18;;;5.55;;
28960;SDS011;16068;42.896;20.868;2023-06-22T15:07:04;12.02;;;5.90;;
28960;SDS011;16068;42.896;20.868;2023-06-22T15:09:51;8.82;;;5.18;;
28960;SDS011;16068;42.896;20.868;2023-06-22T15:12:36;7.43;;;5.68;;
28960;SDS011;16068;42.896;20.868;2023-06-22T15:15:24;10.65;;;5.70;;
28960;SDS011;16068;42.896;20.868;2023-06-22T15:18:10;9.88;;;5.85;;
28960;SDS011;16068;42.896;20.868;2023-06-22T15:20:56;9.85;;;5.95;;
28960;SDS011;16068;42.896;20.868;2023-06-22T15:23:43;7.25;;;5.38;;
28960;SDS011;16068;42.896;20.868;2023-06-22T15:26:31;15.73;;;5.75;;
28960;SDS011;16068;42.896;20.868;2023-06-22T15:29:17;6.05;;;5.40;;
28960;SDS011;16068;42.896;20.868;2023-06-22T15:32:04;6.72;;;5.25;;
28960;SDS011;16068;42.896;20.868;2023-06-22T15:34:50;8.80;;;6.47;;
28960;SDS011;16068;42.896;20.868;2023-06-22T15:37:39;9.65;;;5.78;;
28960;SDS011;16068;42.896;20.868;2023-06-22T15:40:25;8.80;;;5.85;;
28960;SDS011;16068;42.896;20.868;2023-06-22T15:43:12;10.15;;;6.25;;
28960;SDS011;16068;42.896;20.868;2023-06-22T15:45:59;12.75;;;6.50;;
28960;SDS011;16068;42.896;20.868;2023-06-22T15:48:45;7.32;;;5.63;;
28960;SDS011;16068;42.896;20.868;2023-06-22T15:51:35;8.57;;;5.95;;
28960;SDS011;16068;42.896;20.868;2023-06-22T15:54:20;10.40;;;5.90;;
28960;SDS011;16068;42.896;20.868;2023-06-22T15:57:11;9.18;;;6.28;;
28960;SDS011;16068;42.896;20.868;2023-06-22T16:00:01;14.00;;;6.22;;
28960;SDS011;16068;42.896;20.868;2023-06-22T16:02:51;10.45;;;6.22;;
28960;SDS011;16068;42.896;20.868;2023-06-22T16:05:37;9.73;;;6.50;;
28960;SDS011;16068;42.896;20.868;2023-06-22T16:08:26;13.10;;;6.18;;
28960;SDS011;16068;42.896;20.868;2023-06-22T16:11:15;8.00;;;6.30;;
28960;SDS011;16068;42.896;20.868;2023-06-22T16:14:02;8.43;;;6.80;;
28960;SDS011;16068;42.896;20.868;2023-06-22T16:16:48;13.07;;;6.20;;
28960;SDS011;16068;42.896;20.868;2023-06-22T16:19:35;8.88;;;6.50;;
28960;SDS011;16068;42.896;20.868;2023-06-22T16:22:21;11.18;;;6.57;;
28960;SDS011;16068;42.896;20.868;2023-06-22T16:25:07;18.13;;;11.88;;
28960;SDS011;16068;42.896;20.868;2023-06-22T16:27:54;10.57;;;8.40;;
28960;SDS011;16068;42.896;20.868;2023-06-22T16:30:40;17.25;;;13.40;;
28960;SDS011;16068;42.896;20.868;2023-06-22T16:33:26;33.78;;;18.77;;
28960;SDS011;16068;42.896;20.868;2023-06-22T16:36:15;20.00;;;16.77;;
28960;SDS011;16068;42.896;20.868;2023-06-22T16:39:02;18.13;;;15.80;;
28960;SDS011;16068;42.896;20.868;2023-06-22T16:41:49;20.90;;;16.05;;
28960;SDS011;16068;42.896;20.868;2023-06-22T16:44:40;21.60;;;14.85;;
28960;SDS011;16068;42.896;20.868;2023-06-22T16:47:42;19.27;;;13.43;;
28960;SDS011;16068;42.896;20.868;2023-06-22T16:50:31;17.38;;;13.80;;
28960;SDS011;16068;42.896;20.868;2023-06-22T16:53:17;16.60;;;12.65;;
28960;SDS011;16068;42.896;20.868;2023-06-22T16:56:06;15.95;;;12.60;;
28960;SDS011;16068;42.896;20.868;2023-06-22T16:58:53;16.15;;;12.88;;
28960;SDS011;16068;42.896;20.868;2023-06-22T17:01:53;17.52;;;13.00;;
28960;SDS011;16068;42.896;20.868;2023-06-22T17:04:41;17.60;;;12.43;;
28960;SDS011;16068;42.896;20.868;2023-06-22T17:07:28;18.73;;;11.52;;